createdAt,value
2018-08-22T00:00:37.451Z,74.41
2018-08-22T00:01:43.852Z,75.97
2018-08-22T00:02:51.383Z,75.03
2018-08-22T00:03:58.559Z,75.10
2018-08-22T00:05:05.119Z,75.25
2018-08-22T00:06:11.371Z,75.47
2018-08-22T00:07:17.820Z,75.41
2018-08-22T00:08:23.856Z,75.13
2018-08-22T00:09:30.549Z,75.29
2018-08-22T00:10:38.220Z,75.92
2018-08-22T00:11:44.579Z,77.21
2018-08-22T00:12:51.563Z,76.91
2018-08-22T00:13:57.990Z,76.14
2018-08-22T00:15:04.009Z,75.84
2018-08-22T00:16:10.528Z,75.88
2018-08-22T00:17:16.726Z,75.94
2018-08-22T00:18:23.080Z,75.66
2018-08-22T00:19:29.390Z,75.63
2018-08-22T00:20:35.756Z,76.37
2018-08-22T00:21:41.980Z,76.35
2018-08-22T00:22:48.830Z,75.61
2018-08-22T00:23:55.124Z,75.66
2018-08-22T00:25:01.453Z,75.53
2018-08-22T00:26:07.757Z,75.37
2018-08-22T00:27:14.060Z,75.25
2018-08-22T00:28:20.399Z,75.59
2018-08-22T00:29:26.698Z,75.73
2018-08-22T00:30:33.147Z,75.77
2018-08-22T00:31:39.413Z,75.74
2018-08-22T00:32:45.778Z,75.56
2018-08-22T00:33:52.071Z,75.41
2018-08-22T00:34:58.242Z,75.81
2018-08-22T00:36:11.085Z,75.92
2018-08-22T00:37:18.753Z,76.59
2018-08-22T00:38:25.138Z,76.50
2018-08-22T00:39:31.395Z,76.96
2018-08-22T00:40:37.677Z,76.17
2018-08-22T00:41:43.983Z,76.20
2018-08-22T00:42:52.177Z,76.45
2018-08-22T00:43:59.046Z,76.43
2018-08-22T00:45:05.283Z,76.11
2018-08-22T00:46:11.751Z,75.83
2018-08-22T00:47:23.830Z,76.80
2018-08-22T00:48:30.223Z,76.71
2018-08-22T00:49:36.492Z,76.13
2018-08-22T00:50:42.788Z,76.18
2018-08-22T00:51:49.090Z,76.17
2018-08-22T00:52:55.434Z,76.29
2018-08-22T00:54:01.874Z,76.99
2018-08-22T00:55:08.140Z,77.74
2018-08-22T00:56:14.427Z,77.04
2018-08-22T00:57:20.739Z,76.54
2018-08-22T00:58:27.093Z,77.02
2018-08-22T00:59:33.351Z,76.81
2018-08-22T01:00:39.691Z,76.56
2018-08-22T01:01:45.171Z,76.79
2018-08-22T01:02:51.485Z,76.60
2018-08-22T01:03:58.089Z,76.33
2018-08-22T01:05:04.147Z,76.10
2018-08-22T01:06:10.436Z,76.79
2018-08-22T01:07:16.775Z,76.85
2018-08-22T01:08:23.063Z,76.67
2018-08-22T01:09:29.363Z,77.17
2018-08-22T01:10:35.706Z,76.50
2018-08-22T01:11:42.169Z,76.56
2018-08-22T01:12:48.439Z,76.86
2018-08-22T01:13:54.847Z,76.69
2018-08-22T01:15:01.140Z,77.14
2018-08-22T01:16:07.445Z,76.55
2018-08-22T01:17:13.756Z,76.69
2018-08-22T01:18:20.092Z,76.48
2018-08-22T01:19:26.423Z,76.70
2018-08-22T01:20:32.703Z,76.79
2018-08-22T01:21:39.652Z,77.01
2018-08-22T01:22:46.735Z,76.92
2018-08-22T01:23:52.613Z,77.16
2018-08-22T01:24:58.679Z,77.06
2018-08-22T01:26:04.985Z,76.87
2018-08-22T01:27:11.036Z,76.86
2018-08-22T01:28:17.296Z,76.90
2018-08-22T01:29:23.595Z,77.20
2018-08-22T01:30:29.547Z,77.30
2018-08-22T01:31:35.941Z,77.22
2018-08-22T01:32:42.227Z,77.65
2018-08-22T01:33:53.660Z,77.50
2018-08-22T01:35:03.734Z,77.74
2018-08-22T01:36:09.959Z,77.31
2018-08-22T01:37:16.287Z,77.47
2018-08-22T01:38:22.616Z,77.37
2018-08-22T01:39:29.000Z,77.77
2018-08-22T01:40:35.341Z,78.80
2018-08-22T01:41:41.632Z,78.54
2018-08-22T01:42:47.935Z,78.22
2018-08-22T01:43:54.397Z,77.96
2018-08-22T01:45:00.667Z,77.61
2018-08-22T01:46:06.965Z,78.34
2018-08-22T01:47:13.414Z,78.27
2018-08-22T01:48:19.369Z,77.69
2018-08-22T01:49:25.544Z,77.49
2018-08-22T01:50:31.588Z,77.36
2018-08-22T01:51:37.935Z,77.56
2018-08-22T01:52:44.235Z,77.47
2018-08-22T01:53:50.575Z,78.50
2018-08-22T01:54:56.884Z,78.47
2018-08-22T01:56:03.172Z,78.50
2018-08-22T01:57:09.479Z,78.05
2018-08-22T01:58:15.784Z,78.25
2018-08-22T01:59:22.033Z,78.22
2018-08-22T02:00:28.318Z,77.66
2018-08-22T02:01:34.655Z,77.79
2018-08-22T02:02:40.951Z,77.98
2018-08-22T02:03:47.302Z,78.92
2018-08-22T02:04:53.566Z,78.50
2018-08-22T02:05:59.880Z,78.86
2018-08-22T02:07:06.194Z,79.16
2018-08-22T02:08:12.493Z,78.97
2018-08-22T02:09:18.909Z,78.80
2018-08-22T02:10:25.260Z,78.42
2018-08-22T02:11:31.584Z,78.68
2018-08-22T02:12:43.574Z,78.49
2018-08-22T02:13:50.034Z,79.01
2018-08-22T02:14:56.328Z,78.73
2018-08-22T02:16:02.318Z,79.13
2018-08-22T02:17:08.640Z,79.79
2018-08-22T02:18:14.942Z,79.46
2018-08-22T02:19:21.175Z,79.66
2018-08-22T02:20:27.527Z,79.80
2018-08-22T02:21:39.560Z,79.63
2018-08-22T02:22:49.704Z,79.36
2018-08-22T02:23:56.043Z,79.19
2018-08-22T02:25:02.380Z,79.17
2018-08-22T02:26:08.960Z,79.41
2018-08-22T02:27:15.267Z,79.62
2018-08-22T02:28:21.573Z,80.02
2018-08-22T02:29:27.596Z,79.80
2018-08-22T02:30:33.901Z,80.29
2018-08-22T02:31:40.236Z,80.33
2018-08-22T02:32:46.504Z,79.98
2018-08-22T02:33:52.739Z,79.82
2018-08-22T02:34:59.447Z,80.03
2018-08-22T02:36:06.775Z,79.99
2018-08-22T02:37:13.062Z,80.61
2018-08-22T02:38:19.182Z,79.78
2018-08-22T02:39:25.437Z,80.21
2018-08-22T02:40:31.747Z,79.92
2018-08-22T02:41:37.810Z,80.17
2018-08-22T02:42:44.027Z,80.93
2018-08-22T02:43:50.349Z,80.71
2018-08-22T02:44:56.710Z,81.09
2018-08-22T02:46:02.987Z,81.43
2018-08-22T02:47:09.592Z,80.76
2018-08-22T02:48:15.895Z,81.06
2018-08-22T02:49:22.251Z,81.35
2018-08-22T02:50:28.535Z,80.77
2018-08-22T02:51:34.831Z,80.84
2018-08-22T02:52:41.318Z,80.78
2018-08-22T02:53:47.674Z,80.51
2018-08-22T02:54:53.801Z,80.68
2018-08-22T02:56:00.089Z,80.58
2018-08-22T02:57:06.400Z,82.47
2018-08-22T02:58:13.752Z,81.75
2018-08-22T02:59:20.029Z,81.47
2018-08-22T03:00:26.371Z,81.53
2018-08-22T03:01:32.782Z,81.80
2018-08-22T03:02:39.136Z,81.54
2018-08-22T03:03:45.411Z,81.21
2018-08-22T03:04:51.744Z,81.39
2018-08-22T03:05:57.803Z,81.68
2018-08-22T03:07:04.939Z,82.21
2018-08-22T03:08:22.806Z,81.67
2018-08-22T03:09:34.791Z,81.86
2018-08-22T03:10:42.243Z,81.52
2018-08-22T03:11:48.517Z,81.27
2018-08-22T03:12:54.817Z,80.93
2018-08-22T03:14:01.114Z,81.22
2018-08-22T03:15:07.483Z,81.59
2018-08-22T03:16:13.868Z,81.83
2018-08-22T03:17:20.227Z,81.29
2018-08-22T03:18:26.471Z,82.01
2018-08-22T03:19:32.828Z,81.52
2018-08-22T03:20:39.754Z,81.84
2018-08-22T03:21:46.510Z,81.80
2018-08-22T03:22:52.872Z,81.83
2018-08-22T03:23:59.164Z,81.92
2018-08-22T03:25:05.518Z,81.29
2018-08-22T03:26:11.987Z,81.47
2018-08-22T03:27:19.003Z,81.58
2018-08-22T03:28:25.568Z,81.58
2018-08-22T03:29:31.891Z,81.73
2018-08-22T03:30:38.184Z,81.38
2018-08-22T03:31:44.527Z,81.59
2018-08-22T03:32:50.812Z,82.14
2018-08-22T03:33:57.279Z,81.58
2018-08-22T03:35:03.248Z,81.46
2018-08-22T03:36:09.631Z,81.34
2018-08-22T03:37:16.107Z,81.87
2018-08-22T03:38:22.465Z,82.05
2018-08-22T03:39:28.668Z,82.02
2018-08-22T03:40:35.031Z,82.24
2018-08-22T03:41:41.425Z,82.29
2018-08-22T03:42:47.699Z,82.65
2018-08-22T03:43:54.028Z,82.90
2018-08-22T03:45:00.151Z,83.10
2018-08-22T03:46:06.645Z,82.78
2018-08-22T03:47:13.057Z,82.98
2018-08-22T03:48:19.425Z,82.80
2018-08-22T03:49:25.685Z,82.47
2018-08-22T03:50:32.930Z,82.55
2018-08-22T03:51:40.156Z,82.64
2018-08-22T03:52:49.358Z,82.66
2018-08-22T03:53:55.646Z,83.38
2018-08-22T03:55:01.987Z,83.82
2018-08-22T03:56:12.864Z,83.61
2018-08-22T03:57:19.252Z,84.32
2018-08-22T03:58:26.530Z,84.24
2018-08-22T03:59:33.427Z,84.70
2018-08-22T04:00:42.612Z,84.52
2018-08-22T04:01:48.752Z,84.34
2018-08-22T04:02:55.685Z,83.70
2018-08-22T04:04:01.939Z,83.36
2018-08-22T04:05:08.308Z,83.38
2018-08-22T04:06:14.587Z,83.37
2018-08-22T04:07:20.899Z,83.46
2018-08-22T04:08:27.210Z,83.62
2018-08-22T04:09:33.535Z,83.49
2018-08-22T04:10:39.868Z,83.23
2018-08-22T04:11:47.121Z,83.45
2018-08-22T04:13:00.825Z,83.59
2018-08-22T04:14:19.592Z,83.39
2018-08-22T04:15:38.009Z,83.30
2018-08-22T04:16:52.081Z,83.16
2018-08-22T04:18:09.128Z,83.09
2018-08-22T04:19:22.146Z,83.13
2018-08-22T04:20:41.367Z,83.71
2018-08-22T04:22:02.360Z,83.71
2018-08-22T04:23:21.644Z,84.20
2018-08-22T04:24:39.485Z,84.04
2018-08-22T04:26:01.211Z,83.51
2018-08-22T04:27:19.284Z,84.68
2018-08-22T04:28:33.335Z,84.47
2018-08-22T04:29:54.099Z,84.64
2018-08-22T04:31:08.028Z,84.27
2018-08-22T04:32:33.083Z,84.23
2018-08-22T04:33:51.436Z,84.24
2018-08-22T04:35:10.304Z,84.92
2018-08-22T04:36:44.827Z,85.29
2018-08-22T04:38:11.222Z,85.16
2018-08-22T04:39:30.215Z,85.06
2018-08-22T04:40:41.803Z,84.58
2018-08-22T04:41:59.318Z,84.34
2018-08-22T04:43:17.702Z,84.75
2018-08-22T04:44:28.914Z,84.42
2018-08-22T04:45:41.523Z,84.45
2018-08-22T04:46:53.461Z,84.65
2018-08-22T04:48:04.875Z,84.25
2018-08-22T04:49:14.491Z,84.35
2018-08-22T04:50:25.418Z,84.10
2018-08-22T04:51:36.721Z,84.06
2018-08-22T04:52:48.423Z,84.27
2018-08-22T04:53:59.387Z,84.28
2018-08-22T04:55:08.122Z,84.03
2018-08-22T04:56:14.395Z,83.82
2018-08-22T04:57:20.711Z,83.19
2018-08-22T04:58:27.004Z,83.35
2018-08-22T04:59:33.370Z,83.42
2018-08-22T05:00:39.681Z,83.62
2018-08-22T05:01:46.671Z,83.71
2018-08-22T05:02:53.110Z,84.08
2018-08-22T05:03:59.379Z,83.55
2018-08-22T05:05:05.707Z,83.54
2018-08-22T05:06:12.659Z,84.00
2018-08-22T05:07:19.640Z,83.61
2018-08-22T05:08:25.852Z,83.34
2018-08-22T05:09:32.204Z,82.58
2018-08-22T05:10:38.523Z,83.11
2018-08-22T05:11:44.856Z,82.96
2018-08-22T05:12:51.114Z,82.86
2018-08-22T05:13:57.407Z,82.91
2018-08-22T05:15:03.627Z,83.12
2018-08-22T05:16:11.005Z,82.91
2018-08-22T05:17:18.694Z,82.85
2018-08-22T05:18:25.032Z,83.71
2018-08-22T05:19:31.340Z,83.72
2018-08-22T05:20:38.526Z,82.56
2018-08-22T05:21:45.047Z,82.75
2018-08-22T05:22:53.340Z,82.77
2018-08-22T05:24:00.146Z,82.01
2018-08-22T05:25:10.426Z,83.65
2018-08-22T05:26:17.152Z,81.81
2018-08-22T05:27:24.889Z,81.89
2018-08-22T05:28:40.080Z,81.02
2018-08-22T05:29:57.272Z,80.00
2018-08-22T05:31:09.000Z,79.73
2018-08-22T05:32:15.293Z,79.55
2018-08-22T05:33:21.607Z,78.96
2018-08-22T05:34:32.920Z,78.54
2018-08-22T05:35:39.710Z,78.10
2018-08-22T05:36:46.003Z,78.55
2018-08-22T05:37:53.904Z,78.27
2018-08-22T05:39:01.326Z,77.82
2018-08-22T05:40:07.810Z,77.23
2018-08-22T05:41:14.568Z,77.89
2018-08-22T05:42:21.104Z,77.88
2018-08-22T05:43:27.509Z,77.48
2018-08-22T05:44:34.261Z,77.29
2018-08-22T05:45:40.763Z,77.90
2018-08-22T05:46:47.059Z,77.03
2018-08-22T05:47:53.625Z,76.35
2018-08-22T05:49:00.165Z,75.80
2018-08-22T05:50:06.237Z,74.70
2018-08-22T05:51:12.496Z,74.62
2018-08-22T05:52:18.853Z,74.57
2018-08-22T05:53:25.147Z,74.83
2018-08-22T05:54:31.419Z,74.46
2018-08-22T05:55:37.764Z,73.72
2018-08-22T05:56:44.086Z,72.46
2018-08-22T05:57:50.425Z,72.26
2018-08-22T05:58:56.702Z,71.90
2018-08-22T06:00:03.716Z,71.62
2018-08-22T06:01:10.584Z,72.07
2018-08-22T06:02:17.287Z,71.94
2018-08-22T06:03:23.685Z,71.28
2018-08-22T06:04:30.205Z,71.54
2018-08-22T06:05:36.611Z,71.54
2018-08-22T06:06:43.757Z,71.53
2018-08-22T06:07:50.185Z,70.40
2018-08-22T06:08:56.456Z,70.81
2018-08-22T06:10:02.797Z,69.84
2018-08-22T06:11:09.055Z,70.45
2018-08-22T06:12:15.412Z,70.14
2018-08-22T06:13:21.676Z,69.39
2018-08-22T06:14:27.913Z,69.29
2018-08-22T06:15:34.221Z,69.67
2018-08-22T06:16:40.839Z,69.47
2018-08-22T06:17:46.751Z,69.40
2018-08-22T06:18:52.736Z,69.66
2018-08-22T06:19:59.080Z,69.88
2018-08-22T06:21:05.372Z,69.66
2018-08-22T06:22:11.720Z,69.87
2018-08-22T06:23:17.791Z,69.03
2018-08-22T06:24:24.102Z,68.92
2018-08-22T06:25:30.460Z,69.78
2018-08-22T06:26:42.456Z,67.87
2018-08-22T06:27:48.796Z,67.79
2018-08-22T06:28:55.584Z,67.13
2018-08-22T06:30:01.838Z,67.41
2018-08-22T06:31:08.747Z,67.69
2018-08-22T06:32:15.074Z,65.89
2018-08-22T06:33:21.422Z,65.61
2018-08-22T06:34:27.692Z,68.07
2018-08-22T06:35:33.972Z,66.15
2018-08-22T06:36:40.284Z,66.59
2018-08-22T06:37:46.659Z,66.37
2018-08-22T06:38:53.116Z,67.03
2018-08-22T06:39:59.432Z,67.41
2018-08-22T06:41:05.843Z,66.88
2018-08-22T06:43:17.431Z,65.32
2018-08-22T06:44:23.541Z,65.88
2018-08-22T06:45:29.728Z,64.92
2018-08-22T06:46:36.073Z,65.25
2018-08-22T06:47:42.416Z,65.24
2018-08-22T06:48:48.812Z,64.91
2018-08-22T06:49:55.164Z,65.40
2018-08-22T06:51:01.432Z,64.83
2018-08-22T06:52:07.771Z,64.30
2018-08-22T06:53:14.085Z,64.85
2018-08-22T06:54:20.518Z,65.52
2018-08-22T06:55:26.829Z,64.61
2018-08-22T06:56:33.110Z,65.57
2018-08-22T06:57:39.446Z,64.57
2018-08-22T06:58:45.715Z,64.65
2018-08-22T06:59:52.049Z,64.33
2018-08-22T07:00:58.372Z,63.46
2018-08-22T07:02:04.655Z,63.52
2018-08-22T07:03:11.238Z,64.46
2018-08-22T07:04:17.485Z,64.46
2018-08-22T07:05:23.775Z,64.68
2018-08-22T07:06:30.223Z,64.45
2018-08-22T07:07:36.529Z,64.62
2018-08-22T07:08:42.821Z,64.95
2018-08-22T07:09:50.056Z,63.64
2018-08-22T07:10:56.375Z,63.65
2018-08-22T07:12:02.708Z,63.06
2018-08-22T07:13:09.030Z,64.43
2018-08-22T07:14:15.336Z,63.42
2018-08-22T07:15:21.651Z,63.60
2018-08-22T07:16:28.684Z,63.55
2018-08-22T07:17:35.095Z,62.98
2018-08-22T07:18:46.885Z,62.18
2018-08-22T07:19:53.223Z,62.15
2018-08-22T07:21:00.473Z,62.90
2018-08-22T07:22:07.055Z,62.97
2018-08-22T07:23:13.293Z,62.69
2018-08-22T07:24:19.592Z,62.84
2018-08-22T07:25:25.923Z,62.28
2018-08-22T07:26:32.241Z,62.58
2018-08-22T07:27:38.554Z,63.10
2018-08-22T07:28:44.525Z,62.37
2018-08-22T07:29:50.876Z,62.70
2018-08-22T07:31:05.389Z,62.15
2018-08-22T07:32:11.599Z,62.71
2018-08-22T07:33:17.877Z,63.57
2018-08-22T07:34:23.961Z,62.01
2018-08-22T07:35:30.251Z,62.48
2018-08-22T07:36:36.480Z,62.57
2018-08-22T07:37:42.820Z,61.15
2018-08-22T07:38:56.616Z,60.63
2018-08-22T07:40:03.010Z,61.16
2018-08-22T07:41:09.316Z,61.47
2018-08-22T07:42:15.677Z,61.23
2018-08-22T07:43:24.901Z,61.77
2018-08-22T07:44:31.240Z,61.23
2018-08-22T07:45:37.838Z,61.90
2018-08-22T07:46:44.202Z,60.95
2018-08-22T07:47:50.637Z,59.57
2018-08-22T07:48:57.433Z,59.11
2018-08-22T07:50:03.484Z,59.38
2018-08-22T07:51:09.918Z,60.03
2018-08-22T07:52:16.230Z,60.51
2018-08-22T07:53:23.475Z,60.78
2018-08-22T07:54:29.751Z,59.15
2018-08-22T07:55:39.069Z,58.99
2018-08-22T07:56:45.360Z,58.57
2018-08-22T07:57:51.698Z,58.55
2018-08-22T07:58:57.319Z,58.35
2018-08-22T08:00:03.655Z,58.14
2018-08-22T08:01:10.661Z,57.24
2018-08-22T08:02:16.924Z,57.23
2018-08-22T08:03:23.799Z,57.98
2018-08-22T08:04:30.048Z,57.87
2018-08-22T08:05:36.383Z,58.42
2018-08-22T08:06:43.008Z,58.58
2018-08-22T08:07:49.497Z,57.87
2018-08-22T08:08:55.840Z,58.09
2018-08-22T08:10:02.136Z,57.45
2018-08-22T08:11:17.706Z,58.10
2018-08-22T08:12:23.690Z,57.68
2018-08-22T08:13:30.032Z,57.09
2018-08-22T08:14:36.284Z,56.70
2018-08-22T08:15:42.690Z,57.24
2018-08-22T08:16:49.053Z,57.17
2018-08-22T08:17:55.305Z,57.48
2018-08-22T08:19:01.655Z,55.87
2018-08-22T08:20:07.654Z,55.78
2018-08-22T08:21:13.964Z,55.64
2018-08-22T08:22:20.267Z,56.04
2018-08-22T08:23:31.592Z,56.26
2018-08-22T08:24:37.917Z,55.13
2018-08-22T08:25:44.212Z,55.19
2018-08-22T08:26:50.556Z,54.13
2018-08-22T08:27:57.181Z,53.75
2018-08-22T08:29:03.846Z,53.74
2018-08-22T08:30:10.099Z,52.95
2018-08-22T08:31:16.387Z,53.60
2018-08-22T08:32:22.692Z,54.27
2018-08-22T08:33:29.142Z,54.71
2018-08-22T08:34:35.530Z,55.03
2018-08-22T08:35:41.889Z,54.52
2018-08-22T08:36:51.525Z,54.49
2018-08-22T08:37:57.832Z,53.85
2018-08-22T08:39:03.611Z,52.01
2018-08-22T08:40:09.842Z,51.31
2018-08-22T08:41:16.172Z,52.45
2018-08-22T08:42:22.505Z,54.06
2018-08-22T08:43:29.175Z,54.07
2018-08-22T08:44:35.613Z,53.96
2018-08-22T08:45:41.919Z,53.88
2018-08-22T08:46:48.248Z,53.95
2018-08-22T08:47:54.351Z,53.44
2018-08-22T08:49:14.215Z,53.08
2018-08-22T08:50:20.472Z,52.21
2018-08-22T08:51:26.791Z,52.86
2018-08-22T08:52:33.362Z,53.20
2018-08-22T08:53:39.948Z,53.94
2018-08-22T08:54:46.331Z,52.61
2018-08-22T08:55:58.256Z,53.09
2018-08-22T08:57:05.352Z,51.47
2018-08-22T08:58:11.352Z,50.15
2018-08-22T08:59:17.772Z,50.56
2018-08-22T09:00:26.239Z,49.87
2018-08-22T09:01:33.232Z,50.22
2018-08-22T09:02:40.124Z,49.88
2018-08-22T09:03:46.432Z,48.71
2018-08-22T09:04:52.855Z,49.06
2018-08-22T09:05:59.055Z,49.60
2018-08-22T09:07:05.399Z,50.93
2018-08-22T09:08:11.733Z,48.88
2018-08-22T09:09:18.356Z,48.09
2018-08-22T09:10:24.678Z,47.85
2018-08-22T09:11:30.967Z,48.39
2018-08-22T09:12:36.291Z,47.75
2018-08-22T09:13:42.333Z,49.04
2018-08-22T09:14:48.792Z,47.98
2018-08-22T09:15:55.056Z,47.62
2018-08-22T09:17:01.502Z,47.80
2018-08-22T09:18:08.525Z,48.06
2018-08-22T09:19:14.951Z,47.87
2018-08-22T09:20:21.228Z,47.52
2018-08-22T09:21:27.600Z,48.27
2018-08-22T09:22:34.059Z,46.03
2018-08-22T09:23:40.403Z,46.21
2018-08-22T09:24:46.720Z,46.81
2018-08-22T09:25:53.005Z,47.24
2018-08-22T09:26:59.545Z,46.57
2018-08-22T09:28:05.866Z,47.45
2018-08-22T09:29:12.490Z,46.11
2018-08-22T09:30:18.788Z,45.77
2018-08-22T09:31:25.104Z,46.02
2018-08-22T09:32:31.383Z,45.42
2018-08-22T09:33:37.743Z,45.63
2018-08-22T09:34:44.377Z,46.40
2018-08-22T09:35:50.984Z,46.21
2018-08-22T09:36:57.244Z,46.93
2018-08-22T09:38:03.544Z,47.02
2018-08-22T09:39:09.760Z,45.65
2018-08-22T09:40:16.007Z,45.01
2018-08-22T09:41:22.417Z,45.70
2018-08-22T09:42:28.692Z,45.14
2018-08-22T09:43:35.048Z,45.49
2018-08-22T09:44:41.367Z,44.92
2018-08-22T09:45:52.867Z,45.64
2018-08-22T09:46:59.160Z,45.83
2018-08-22T09:48:06.477Z,45.39
2018-08-22T09:49:12.458Z,45.65
2018-08-22T09:50:19.051Z,45.58
2018-08-22T09:51:25.380Z,46.29
2018-08-22T09:52:32.216Z,45.46
2018-08-22T09:53:38.479Z,45.69
2018-08-22T09:54:43.835Z,45.86
2018-08-22T09:55:50.084Z,44.29
2018-08-22T09:56:56.448Z,44.72
2018-08-22T09:58:02.885Z,43.26
2018-08-22T09:59:09.092Z,42.54
2018-08-22T10:00:15.444Z,42.77
2018-08-22T10:01:21.395Z,42.93
2018-08-22T10:02:27.416Z,42.26
2018-08-22T10:03:32.957Z,42.14
2018-08-22T10:04:39.075Z,41.61
2018-08-22T10:05:45.540Z,42.41
2018-08-22T10:06:51.838Z,42.28
2018-08-22T10:07:57.847Z,42.52
2018-08-22T10:09:03.595Z,42.21
2018-08-22T10:10:09.949Z,41.80
2018-08-22T10:11:16.203Z,42.85
2018-08-22T10:12:22.493Z,41.12
2018-08-22T10:13:28.750Z,41.15
2018-08-22T10:14:35.051Z,41.55
2018-08-22T10:15:41.346Z,41.51
2018-08-22T10:16:47.645Z,42.15
2018-08-22T10:17:53.961Z,40.48
2018-08-22T10:19:00.326Z,40.14
2018-08-22T10:20:06.304Z,41.07
2018-08-22T10:21:12.584Z,42.38
2018-08-22T10:22:19.039Z,41.38
2018-08-22T10:23:25.051Z,41.98
2018-08-22T10:24:31.072Z,42.60
2018-08-22T10:25:37.328Z,42.12
2018-08-22T10:26:43.104Z,42.11
2018-08-22T10:27:49.258Z,41.80
2018-08-22T10:28:57.546Z,41.37
2018-08-22T10:30:03.858Z,41.55
2018-08-22T10:31:09.819Z,42.11
2018-08-22T10:32:15.829Z,42.94
2018-08-22T10:33:21.826Z,41.95
2018-08-22T10:34:27.874Z,40.88
2018-08-22T10:35:34.160Z,41.03
2018-08-22T10:36:40.663Z,41.15
2018-08-22T10:37:47.146Z,41.05
2018-08-22T10:38:53.363Z,41.30
2018-08-22T10:40:02.643Z,41.68
2018-08-22T10:41:08.584Z,40.39
2018-08-22T10:42:14.589Z,40.32
2018-08-22T10:43:20.619Z,39.93
2018-08-22T10:44:27.027Z,39.35
2018-08-22T10:45:33.142Z,40.39
2018-08-22T10:46:39.400Z,40.46
2018-08-22T10:47:45.419Z,41.29
2018-08-22T10:48:51.333Z,40.15
2018-08-22T10:49:57.336Z,39.96
2018-08-22T10:51:03.385Z,40.42
2018-08-22T10:52:09.360Z,39.57
2018-08-22T10:53:16.081Z,39.67
2018-08-22T10:54:22.181Z,39.98
2018-08-22T10:55:28.217Z,40.05
2018-08-22T10:56:34.292Z,40.63
2018-08-22T10:57:40.330Z,40.62
2018-08-22T10:58:46.301Z,39.14
2018-08-22T10:59:52.319Z,40.51
2018-08-22T11:00:58.457Z,39.31
2018-08-22T11:02:04.459Z,39.32
2018-08-22T11:03:10.776Z,39.97
2018-08-22T11:04:16.772Z,38.71
2018-08-22T11:05:23.320Z,38.67
2018-08-22T11:06:28.913Z,39.13
2018-08-22T11:07:35.148Z,39.14
2018-08-22T11:08:41.152Z,39.61
2018-08-22T11:09:47.669Z,39.86
2018-08-22T11:10:53.720Z,39.93
2018-08-22T11:11:59.729Z,37.90
2018-08-22T11:13:05.341Z,38.15
2018-08-22T11:14:11.428Z,38.46
2018-08-22T11:15:17.226Z,37.69
2018-08-22T11:16:22.908Z,38.43
2018-08-22T11:17:28.915Z,37.70
2018-08-22T11:18:34.910Z,37.90
2018-08-22T11:19:40.895Z,38.35
2018-08-22T11:20:45.483Z,38.09
2018-08-22T11:22:03.808Z,38.30
2018-08-22T11:23:26.692Z,37.08
2018-08-22T11:24:49.725Z,37.84
2018-08-22T11:26:12.572Z,37.48
2018-08-22T11:27:35.499Z,37.65
2018-08-22T11:28:58.198Z,37.39
2018-08-22T11:30:20.867Z,38.07
2018-08-22T11:31:44.051Z,37.74
2018-08-22T11:33:07.407Z,37.44
2018-08-22T11:34:30.422Z,37.71
2018-08-22T11:35:41.138Z,36.50
2018-08-22T11:36:46.008Z,36.53
2018-08-22T11:37:51.584Z,36.93
2018-08-22T11:38:57.591Z,36.58
2018-08-22T11:40:03.730Z,37.37
2018-08-22T11:41:09.719Z,37.54
2018-08-22T11:42:15.914Z,36.09
2018-08-22T11:43:22.013Z,36.06
2018-08-22T11:44:28.028Z,35.71
2018-08-22T11:45:34.055Z,35.41
2018-08-22T11:46:40.060Z,36.25
2018-08-22T11:47:46.264Z,35.36
2018-08-22T11:48:52.832Z,36.79
2018-08-22T11:49:58.866Z,35.86
2018-08-22T11:51:04.905Z,35.49
2018-08-22T11:52:10.881Z,35.88
2018-08-22T11:53:17.567Z,36.63
2018-08-22T11:54:23.335Z,36.87
2018-08-22T11:55:29.318Z,35.63
2018-08-22T11:56:35.320Z,35.84
2018-08-22T11:57:41.301Z,37.10
2018-08-22T11:58:47.327Z,35.12
2018-08-22T11:59:53.313Z,35.53
2018-08-22T12:00:59.382Z,35.38
2018-08-22T12:02:05.020Z,35.82
2018-08-22T12:03:10.831Z,35.95
2018-08-22T12:04:16.760Z,35.86
2018-08-22T12:05:23.388Z,36.62
2018-08-22T12:06:29.377Z,35.88
2018-08-22T12:07:35.357Z,35.32
2018-08-22T12:08:41.372Z,34.91
2018-08-22T12:09:47.366Z,35.36
2018-08-22T12:10:53.359Z,35.75
2018-08-22T12:11:59.398Z,35.30
2018-08-22T12:13:11.628Z,34.74
2018-08-22T12:14:22.580Z,35.02
2018-08-22T12:15:28.687Z,35.51
2018-08-22T12:16:35.815Z,35.44
2018-08-22T12:17:41.779Z,35.07
2018-08-22T12:18:53.005Z,34.58
2018-08-22T12:20:00.788Z,34.48
2018-08-22T12:21:06.777Z,35.14
2018-08-22T12:22:12.770Z,35.22
2018-08-22T12:23:18.857Z,34.76
2018-08-22T12:24:25.185Z,35.45
2018-08-22T12:25:31.005Z,35.15
2018-08-22T12:26:37.067Z,34.97
2018-08-22T12:27:43.287Z,34.90
2018-08-22T12:28:49.303Z,34.43
2018-08-22T12:29:55.198Z,34.04
2018-08-22T12:31:01.186Z,34.48
2018-08-22T12:32:07.428Z,33.98
2018-08-22T12:33:13.667Z,33.99
2018-08-22T12:34:20.060Z,33.65
2018-08-22T12:35:26.176Z,34.11
2018-08-22T12:36:32.180Z,34.09
2018-08-22T12:37:38.227Z,34.30
2018-08-22T12:38:44.064Z,33.97
2018-08-22T12:39:50.781Z,34.62
2018-08-22T12:40:56.780Z,34.32
2018-08-22T12:42:02.828Z,33.79
2018-08-22T12:43:08.833Z,35.19
2018-08-22T12:44:14.880Z,33.80
2018-08-22T12:45:20.822Z,33.51
2018-08-22T12:46:26.881Z,34.12
2018-08-22T12:47:32.847Z,34.04
2018-08-22T12:48:38.825Z,33.69
2018-08-22T12:49:44.828Z,33.71
2018-08-22T12:50:50.872Z,34.41
2018-08-22T12:51:56.868Z,34.10
2018-08-22T12:53:02.877Z,33.05
2018-08-22T12:54:08.851Z,32.99
2018-08-22T12:55:15.591Z,32.80
2018-08-22T12:56:21.800Z,33.41
2018-08-22T12:57:27.930Z,32.54
2018-08-22T12:58:33.926Z,32.39
2018-08-22T12:59:39.907Z,32.15
2018-08-22T13:00:45.932Z,32.45
2018-08-22T13:01:57.484Z,33.25
2018-08-22T13:03:09.686Z,32.92
2018-08-22T13:04:15.705Z,32.56
2018-08-22T13:05:21.528Z,34.30
2018-08-22T13:06:27.485Z,33.12
2018-08-22T13:07:33.641Z,32.87
2018-08-22T13:08:39.596Z,33.43
2018-08-22T13:09:46.645Z,33.56
2018-08-22T13:10:52.640Z,34.21
2018-08-22T13:11:58.700Z,32.36
2018-08-22T13:13:04.419Z,32.78
2018-08-22T13:14:11.170Z,33.14
2018-08-22T13:15:17.188Z,33.48
2018-08-22T13:16:23.178Z,32.77
2018-08-22T13:17:29.317Z,34.53
2018-08-22T13:18:35.383Z,32.21
2018-08-22T13:19:41.566Z,31.77
2018-08-22T13:20:47.514Z,32.41
2018-08-22T13:21:53.525Z,31.38
2018-08-22T13:23:05.307Z,32.12
2018-08-22T13:24:11.440Z,31.68
2018-08-22T13:25:17.571Z,32.20
2018-08-22T13:26:23.607Z,32.84
2018-08-22T13:27:29.383Z,32.38
2018-08-22T13:28:35.395Z,31.46
2018-08-22T13:29:41.389Z,32.92
2018-08-22T13:30:47.420Z,30.86
2018-08-22T13:31:53.514Z,31.79
2018-08-22T13:32:59.591Z,31.33
2018-08-22T13:34:05.184Z,30.89
2018-08-22T13:35:11.489Z,31.53
2018-08-22T13:36:17.805Z,31.78
2018-08-22T13:37:24.162Z,31.68
2018-08-22T13:38:30.238Z,31.58
2018-08-22T13:39:36.354Z,30.54
2018-08-22T13:40:42.483Z,30.09
2018-08-22T13:41:48.457Z,29.67
2018-08-22T13:42:54.492Z,30.63
2018-08-22T13:44:00.442Z,30.42
2018-08-22T13:45:05.724Z,30.25
2018-08-22T13:46:11.765Z,29.71
2018-08-22T13:47:17.776Z,29.56
2018-08-22T13:48:23.824Z,33.16
2018-08-22T13:49:29.792Z,30.21
2018-08-22T13:50:35.777Z,28.55
2018-08-22T13:51:41.866Z,29.35
2018-08-22T13:52:49.082Z,29.35
2018-08-22T13:53:55.223Z,30.29
2018-08-22T13:55:01.256Z,29.63
2018-08-22T13:56:13.532Z,30.07
2018-08-22T13:57:22.577Z,33.30
2018-08-22T13:58:28.596Z,29.62
2018-08-22T13:59:38.392Z,28.45
2018-08-22T14:00:44.319Z,28.06
2018-08-22T14:01:50.355Z,28.57
2018-08-22T14:02:56.287Z,28.38
2018-08-22T14:04:02.269Z,28.24
2018-08-22T14:05:08.449Z,27.80
2018-08-22T14:06:15.091Z,29.74
2018-08-22T14:07:21.115Z,29.25
2018-08-22T14:08:27.155Z,30.27
2018-08-22T14:09:33.117Z,29.54
2018-08-22T14:10:39.128Z,28.94
2018-08-22T14:11:45.393Z,30.49
2018-08-22T14:12:51.779Z,29.52
2018-08-22T14:14:02.750Z,28.69
2018-08-22T14:15:10.052Z,29.70
2018-08-22T14:16:16.114Z,30.12
2018-08-22T14:17:22.713Z,29.77
2018-08-22T14:18:28.776Z,29.37
2018-08-22T14:19:34.735Z,29.94
2018-08-22T14:20:40.748Z,30.46
2018-08-22T14:21:46.764Z,30.28
2018-08-22T14:22:52.789Z,29.68
2018-08-22T14:23:59.583Z,29.57
2018-08-22T14:25:04.894Z,29.59
2018-08-22T14:26:11.769Z,29.25
2018-08-22T14:27:17.823Z,30.40